Time;durP1;ratioP1;P1;durP2;ratioP2;P2;SDS_P1;SDS_P2;PMS_P1;PMS_P2;Temp;Humidity;BMP_temperature;BMP_pressure;BME280_temperature;BME280_humidity;BME280_pressure;Samples;Min_cycle;Max_cycle;Signal;HPM_P1;HPM_P2
2022/08/29 00:00:15;;;;;;;7.90;2.70;;;;;;;27.28;37.73;101436.47;5095258;28;20040;-51
2022/08/29 00:02:43;;;;;;;8.20;2.33;;;;;;;27.20;37.89;101432.91;5113069;28;20031;-50
2022/08/29 00:05:12;;;;;;;7.88;2.80;;;;;;;27.20;37.96;101427.63;5113257;28;20027;-52
2022/08/29 00:07:39;;;;;;;6.47;2.60;;;;;;;27.18;37.82;101438.16;5094984;28;20027;-49
2022/08/29 00:10:08;;;;;;;7.80;2.80;;;;;;;27.28;37.69;101436.47;5112885;28;20391;-48
2022/08/29 00:12:37;;;;;;;6.55;2.17;;;;;;;27.28;37.58;101429.44;5113314;28;20024;-52
2022/08/29 00:15:08;;;;;;;5.32;2.33;;;;;;;27.26;37.96;101423.28;5094903;28;20469;-52
2022/08/29 00:17:36;;;;;;;6.82;2.55;;;;;;;27.34;37.64;101414.56;5113298;28;20380;-48
2022/08/29 00:20:07;;;;;;;5.30;2.05;;;;;;;27.27;37.73;101416.28;5095043;28;20030;-51
2022/08/29 00:22:35;;;;;;;5.90;2.33;;;;;;;27.28;37.61;101416.28;5112859;28;20020;-49
2022/08/29 00:25:04;;;;;;;7.38;2.65;;;;;;;27.30;37.63;101405.75;5094864;28;20530;-49
2022/08/29 00:27:34;;;;;;;10.13;2.75;;;;;;;27.29;37.60;101417.16;5112904;28;20034;-50
2022/08/29 00:30:02;;;;;;;6.18;2.45;;;;;;;27.24;37.74;101418.88;5094738;28;20027;-52
2022/08/29 00:32:33;;;;;;;6.78;2.60;;;;;;;27.18;37.72;101405.66;5112834;28;20110;-52
2022/08/29 00:35:05;;;;;;;6.82;2.60;;;;;;;27.10;38.18;101413.50;5112952;28;20079;-49
2022/08/29 00:37:34;;;;;;;6.40;2.45;;;;;;;27.08;38.04;101410.88;5094740;28;20091;-51
2022/08/29 00:40:04;;;;;;;7.82;2.53;;;;;;;27.19;37.67;101420.59;5095185;28;20032;-51
2022/08/29 00:42:34;;;;;;;8.43;2.63;;;;;;;27.15;37.72;101417.06;5112523;28;20028;-50
2022/08/29 00:45:05;;;;;;;6.55;2.65;;;;;;;27.27;37.58;101422.41;5112403;28;20028;-50
2022/08/29 00:47:36;;;;;;;5.05;2.22;;;;;;;27.26;37.45;101414.50;5097940;28;20027;-51
2022/08/29 00:50:07;;;;;;;4.65;2.50;;;;;;;27.29;37.42;101417.16;5116760;28;20495;-48
2022/08/29 00:52:42;;;;;;;5.10;2.03;;;;;;;27.29;37.39;101415.41;5116430;28;20027;-52
2022/08/29 00:55:18;;;;;;;7.75;2.78;;;;;;;27.21;37.53;101408.31;5098689;28;20409;-48
2022/08/29 00:57:49;;;;;;;7.22;2.83;;;;;;;27.20;37.49;101407.47;5116370;28;20036;-51
2022/08/29 01:00:17;;;;;;;7.65;2.40;;;;;;;27.18;37.86;101414.47;5097894;28;20036;-49
2022/08/29 01:02:47;;;;;;;4.45;2.40;;;;;;;27.22;37.60;101408.31;5116157;28;20106;-51
2022/08/29 01:05:16;;;;;;;5.25;2.45;;;;;;;27.21;37.45;101427.66;5115451;28;20578;-51
2022/08/29 01:07:45;;;;;;;7.30;2.50;;;;;;;27.21;37.58;101421.50;5116338;28;20028;-50
2022/08/29 01:12:14;;;;;;;10.15;2.83;;;;;;;27.22;37.44;101425.88;5115785;28;20384;-52
2022/08/29 01:13:03;;;;;;;5.78;2.70;;;;;;;27.11;37.40;101418.81;5100748;28;20027;-50
2022/08/29 01:15:32;;;;;;;7.07;2.20;;;;;;;27.17;37.61;101424.97;5115920;28;20027;-48
2022/08/29 01:18:01;;;;;;;5.32;2.17;;;;;;;27.15;37.52;101431.09;5098223;28;20385;-50
2022/08/29 01:20:35;;;;;;;5.53;2.50;;;;;;;27.12;37.64;101420.56;5115502;28;20023;-50
2022/08/29 01:23:21;;;;;;;6.80;2.60;;;;;;;27.12;37.51;101419.69;5116243;28;20077;-47
2022/08/29 01:25:51;;;;;;;6.18;2.65;;;;;;;27.04;37.68;101424.88;5080714;28;20493;-47
2022/08/29 01:28:22;;;;;;;7.43;2.63;;;;;;;26.95;38.00;101424.84;5115868;28;20065;-47
2022/08/29 01:31:11;;;;;;;10.68;2.50;;;;;;;26.93;37.98;101429.22;5097800;28;20028;-48
2022/08/29 01:33:40;;;;;;;6.28;2.50;;;;;;;27.02;37.59;101423.13;5097925;28;20020;-51
2022/08/29 01:36:10;;;;;;;4.95;2.22;;;;;;;27.09;37.53;101424.91;5115736;28;20022;-50
2022/08/29 01:38:40;;;;;;;5.57;2.50;;;;;;;27.14;37.53;101410.03;5115528;28;20063;-53
2022/08/29 01:41:09;;;;;;;6.18;2.42;;;;;;;27.12;37.45;101411.78;5115535;28;20021;-50
2022/08/29 01:43:44;;;;;;;7.00;2.25;;;;;;;27.06;37.69;101403.81;5115387;28;20382;-48
2022/08/29 01:46:15;;;;;;;9.38;2.65;;;;;;;27.05;37.51;101404.72;5097515;28;20028;-52
2022/08/29 01:48:43;;;;;;;6.25;2.72;;;;;;;27.05;37.51;101399.47;5115311;28;20023;-51
2022/08/29 01:51:13;;;;;;;6.82;2.58;;;;;;;27.08;37.42;101399.44;5115384;28;20047;-49
2022/08/29 01:53:41;;;;;;;5.50;2.40;;;;;;;27.13;37.42;101400.38;5115194;28;20027;-47
2022/08/29 01:56:16;;;;;;;6.75;2.63;;;;;;;27.10;37.48;101395.06;5115042;28;20030;-50
2022/08/29 01:58:44;;;;;;;;;;;;;;;27.14;37.19;101392.47;5114626;28;20122;-49
2022/08/29 02:01:15;;;;;;;7.15;2.63;;;;;;;27.09;37.28;101391.59;5114921;28;19919;-51
2022/08/29 02:03:44;;;;;;;6.50;3.05;;;;;;;27.11;37.66;101387.22;5114801;28;20073;-49
2022/08/29 02:06:13;;;;;;;5.18;1.88;;;;;;;27.06;37.65;101388.91;5114915;28;20077;-53
2022/08/29 02:08:42;;;;;;;5.55;2.70;;;;;;;27.06;37.42;101374.84;5115209;28;20469;-51
2022/08/29 02:11:12;;;;;;;5.30;2.38;;;;;;;27.06;37.43;101388.03;5115003;28;20037;-47
2022/08/29 02:13:44;;;;;;;7.05;2.28;;;;;;;27.00;37.56;101380.97;5114887;28;20023;-52
2022/08/29 02:16:13;;;;;;;7.45;2.67;;;;;;;27.01;37.32;101376.59;5114875;28;20015;-51
2022/08/29 02:18:41;;;;;;;4.82;2.22;;;;;;;27.05;37.40;101374.00;5097214;28;20499;-51
2022/08/29 02:21:12;;;;;;;5.60;2.78;;;;;;;27.05;37.74;101370.50;5114735;28;20031;-51
2022/08/29 02:23:41;;;;;;;5.00;2.28;;;;;;;27.06;37.42;101381.03;5096444;28;20024;-52
2022/08/29 02:26:10;;;;;;;5.88;2.58;;;;;;;27.05;37.38;101373.13;5114530;28;20027;-48
2022/08/29 02:28:40;;;;;;;6.20;3.08;;;;;;;27.04;37.20;101371.34;5095943;28;20377;-48
2022/08/29 02:31:09;;;;;;;5.18;2.50;;;;;;;27.07;37.57;101367.00;5114551;28;20076;-51
2022/08/29 02:33:37;;;;;;;7.28;2.13;;;;;;;27.11;37.20;101373.16;5096076;28;20123;-50
2022/08/29 02:36:07;;;;;;;11.02;3.25;;;;;;;27.04;37.28;101366.09;5114498;28;20069;-50
2022/08/29 02:38:35;;;;;;;7.63;2.80;;;;;;;27.05;37.43;101358.19;5114125;28;20019;-52
2022/08/29 02:41:03;;;;;;;7.85;2.28;;;;;;;26.97;37.46;101360.78;5114165;28;20024;-50
2022/08/29 02:43:32;;;;;;;7.45;3.15;;;;;;;26.91;37.32;101350.19;5114196;28;20189;-47
2022/08/29 02:46:01;;;;;;;6.57;2.30;;;;;;;26.94;37.39;101352.00;5114484;28;20357;-47
2022/08/29 02:48:29;;;;;;;7.43;2.63;;;;;;;26.88;37.55;101349.31;5114257;28;20106;-51
2022/08/29 02:50:59;;;;;;;7.15;2.55;;;;;;;26.93;37.46;101359.00;5114267;28;20023;-51
2022/08/29 02:53:29;;;;;;;5.93;2.42;;;;;;;26.86;37.68;101348.41;5114278;28;20053;-52
2022/08/29 02:55:58;;;;;;;6.15;2.50;;;;;;;26.80;37.80;101357.16;5113849;28;20430;-51
2022/08/29 02:58:27;;;;;;;7.22;2.67;;;;;;;26.77;37.75;101351.81;5095592;28;20403;-51
2022/08/29 03:00:56;;;;;;;5.60;2.63;;;;;;;26.78;37.41;101338.69;5114324;28;20031;-48
2022/08/29 03:03:24;;;;;;;5.78;2.10;;;;;;;26.82;37.46;101339.63;5114236;28;20349;-48
2022/08/29 03:05:53;;;;;;;6.25;2.78;;;;;;;26.78;37.84;101345.69;5113688;28;20055;-51
2022/08/29 03:08:22;;;;;;;7.63;2.33;;;;;;;26.69;37.65;101333.34;5113905;28;20145;-51
2022/08/29 03:10:51;;;;;;;5.90;2.80;;;;;;;26.68;37.71;101321.94;5113977;28;20145;-50
2022/08/29 03:13:20;;;;;;;6.65;2.33;;;;;;;26.72;37.66;101338.63;5113883;28;20509;-49
2022/08/29 03:15:48;;;;;;;7.68;2.55;;;;;;;26.70;37.76;101345.63;5113568;28;20461;-47
2022/08/29 03:18:18;;;;;;;5.68;2.80;;;;;;;26.72;37.86;101343.03;5113847;28;20055;-49
2022/08/29 03:20:47;;;;;;;8.48;3.53;;;;;;;26.78;37.65;101350.94;5095722;28;20433;-49
2022/08/29 03:23:15;;;;;;;6.65;2.97;;;;;;;26.77;37.74;101347.47;5113752;28;20406;-50
2022/08/29 03:25:43;;;;;;;5.88;2.22;;;;;;;26.81;37.48;101335.22;5095638;28;20483;-48
2022/08/29 03:28:12;;;;;;;5.57;2.35;;;;;;;26.65;37.39;101316.66;5113491;28;20024;-51
2022/08/29 03:30:41;;;;;;;7.68;3.10;;;;;;;26.68;37.68;101331.56;5113922;28;20062;-48
2022/08/29 03:33:09;;;;;;;4.38;2.22;;;;;;;26.66;37.73;101328.06;5113528;28;20028;-48
2022/08/29 03:35:37;;;;;;;3.75;2.00;;;;;;;26.69;37.70;101320.19;5113727;28;20122;-47
2022/08/29 03:38:06;;;;;;;10.00;2.88;;;;;;;26.73;37.85;101324.59;5113796;28;20045;-49
2022/08/29 03:40:34;;;;;;;5.15;2.22;;;;;;;26.64;37.75;101322.78;5113009;28;20059;-47
2022/08/29 03:43:03;;;;;;;7.00;3.00;;;;;;;26.65;37.77;101326.28;5113589;28;20020;-52
2022/08/29 03:45:32;;;;;;;4.90;2.25;;;;;;;26.63;37.79;101328.06;5113537;28;20103;-49
2022/08/29 03:47:59;;;;;;;4.80;2.70;;;;;;;26.69;37.62;101320.19;5113069;28;20038;-52
2022/08/29 03:50:28;;;;;;;7.03;3.10;;;;;;;26.67;37.52;101332.44;5113174;28;20097;-50
2022/08/29 03:52:56;;;;;;;7.05;2.65;;;;;;;26.63;37.64;101331.56;5113390;28;20028;-51
2022/08/29 03:55:25;;;;;;;3.92;2.42;;;;;;;26.59;37.79;101305.22;5095641;28;20421;-50
2022/08/29 03:57:55;;;;;;;7.20;3.00;;;;;;;26.61;37.75;101314.00;5113151;28;20051;-47
2022/08/29 04:00:24;;;;;;;5.78;2.72;;;;;;;26.61;37.84;101316.63;5112890;28;20111;-51
2022/08/29 04:02:54;;;;;;;8.13;2.67;;;;;;;26.68;37.68;101315.78;5113060;28;20396;-53
2022/08/29 04:05:22;;;;;;;6.32;2.70;;;;;;;26.64;37.72;101319.28;5113256;28;20023;-54
2022/08/29 04:07:55;;;;;;;6.55;3.10;;;;;;;26.67;37.51;101329.81;5113063;28;20028;-50
2022/08/29 04:10:27;;;;;;;8.20;3.13;;;;;;;26.69;37.63;101322.81;5112786;28;20425;-50
2022/08/29 04:12:55;;;;;;;6.43;2.60;;;;;;;26.66;37.69;101320.16;5113251;28;20473;-49
2022/08/29 04:15:24;;;;;;;7.35;2.92;;;;;;;26.60;37.60;101318.38;5094913;28;20364;-50
2022/08/29 04:17:54;;;;;;;5.40;2.50;;;;;;;26.56;37.85;101320.97;5112986;28;20081;-48
2022/08/29 04:20:26;;;;;;;9.45;2.92;;;;;;;26.47;37.84;101317.41;5112749;28;20423;-51
2022/08/29 04:22:56;;;;;;;5.97;2.65;;;;;;;26.49;37.98;101313.00;5116802;28;20020;-50
2022/08/29 04:25:26;;;;;;;7.07;2.83;;;;;;;26.48;37.80;101310.38;5116912;28;20098;-51
2022/08/29 04:27:55;;;;;;;10.35;2.78;;;;;;;26.53;37.58;101311.31;5116796;28;20062;-51
2022/08/29 04:30:26;;;;;;;8.35;3.05;;;;;;;26.52;37.54;101306.91;5116686;28;20050;-50
2022/08/29 04:32:55;;;;;;;7.32;2.90;;;;;;;26.42;37.69;101311.22;5116827;28;20469;-49
2022/08/29 04:35:23;;;;;;;9.23;3.17;;;;;;;26.29;37.76;101306.75;5116930;28;20063;-51
2022/08/29 04:37:52;;;;;;;8.73;2.92;;;;;;;26.31;37.61;101310.25;5115958;28;20472;-51
2022/08/29 04:40:22;;;;;;;7.60;2.63;;;;;;;26.35;37.82;101305.03;5116728;28;20027;-51
2022/08/29 04:42:51;;;;;;;6.30;3.28;;;;;;;26.43;37.57;101302.47;5081954;28;20127;-52
2022/08/29 04:45:22;;;;;;;13.30;2.95;;;;;;;26.39;37.77;101311.19;5116342;28;20026;-50
2022/08/29 04:47:51;;;;;;;6.40;3.13;;;;;;;26.34;37.95;101312.91;5116481;28;20030;-48
2022/08/29 04:50:22;;;;;;;7.38;3.40;;;;;;;26.36;37.61;101313.78;5116410;28;20027;-51
2022/08/29 04:52:52;;;;;;;5.82;2.97;;;;;;;26.37;37.87;101316.47;5116381;28;20062;-48
2022/08/29 04:55:23;;;;;;;6.05;3.00;;;;;;;26.37;38.04;101324.34;5116575;28;20058;-50
2022/08/29 04:57:53;;;;;;;7.70;3.10;;;;;;;26.35;37.70;101328.72;5116093;28;20051;-49
2022/08/29 05:00:23;;;;;;;5.80;2.92;;;;;;;26.35;37.47;101323.44;5116091;28;20028;-50
2022/08/29 05:02:51;;;;;;;13.05;3.83;;;;;;;26.29;37.80;101333.91;5116121;28;20035;-49
2022/08/29 05:05:20;;;;;;;5.90;2.97;;;;;;;26.18;38.05;101332.94;5116173;28;20023;-51
2022/08/29 05:07:49;;;;;;;8.48;3.20;;;;;;;26.20;37.89;101326.81;5116290;28;20023;-52
2022/08/29 05:10:19;;;;;;;6.82;3.05;;;;;;;26.21;38.01;101333.84;5116007;28;20035;-51
2022/08/29 05:12:48;;;;;;;7.38;3.22;;;;;;;26.16;38.15;101342.56;5116335;28;20040;-48
2022/08/29 05:15:17;;;;;;;7.05;2.92;;;;;;;26.30;37.95;101346.19;5115475;28;20389;-52
2022/08/29 05:17:46;;;;;;;10.25;3.50;;;;;;;26.24;37.63;101340.84;5097709;28;20105;-49
2022/08/29 05:20:15;;;;;;;6.15;2.90;;;;;;;26.19;38.03;101346.09;5115276;28;20093;-51
2022/08/29 05:22:44;;;;;;;7.13;2.53;;;;;;;26.20;37.94;101339.97;5097773;28;20055;-52
2022/08/29 05:25:13;;;;;;;4.13;2.30;;;;;;;26.12;37.92;101341.66;5115411;28;20027;-48
2022/08/29 05:27:42;;;;;;;8.57;3.00;;;;;;;26.12;37.93;101348.63;5097650;28;20123;-47
2022/08/29 05:30:10;;;;;;;10.23;2.63;;;;;;;26.15;37.76;101331.13;5115712;28;20469;-48
2022/08/29 05:32:39;;;;;;;4.28;2.35;;;;;;;26.21;37.89;101352.25;5114565;28;20411;-47
2022/08/29 05:35:08;;;;;;;6.88;2.92;;;;;;;26.15;37.87;101340.78;5115738;28;20435;-47
2022/08/29 05:37:37;;;;;;;6.70;2.67;;;;;;;26.19;38.00;101346.09;5115431;28;20098;-47
2022/08/29 05:40:06;;;;;;;6.53;2.78;;;;;;;26.15;38.02;101349.53;5080502;28;20399;-47
2022/08/29 05:42:35;;;;;;;7.22;2.97;;;;;;;26.24;37.87;101357.53;5097210;28;20084;-47
2022/08/29 05:45:06;;;;;;;6.85;2.47;;;;;;;26.17;37.79;101353.06;5115852;28;20051;-47
2022/08/29 05:47:34;;;;;;;6.95;2.95;;;;;;;26.18;38.02;101352.22;5115662;28;20380;-51
2022/08/29 05:50:03;;;;;;;4.55;2.35;;;;;;;26.11;37.82;101345.13;5115408;28;20128;-50
2022/08/29 05:52:32;;;;;;;6.88;3.15;;;;;;;26.23;37.84;101352.25;5115131;28;20027;-48
2022/08/29 05:55:01;;;;;;;7.97;3.00;;;;;;;26.13;37.86;101340.78;5115260;28;20081;-52
2022/08/29 05:57:29;;;;;;;8.45;3.20;;;;;;;26.19;37.84;101356.59;5114878;28;20077;-49
2022/08/29 05:59:58;;;;;;;7.15;3.00;;;;;;;26.21;37.58;101343.50;5115010;28;20031;-48
2022/08/29 06:02:27;;;;;;;8.90;2.88;;;;;;;26.23;37.76;101341.72;5097073;28;20063;-51
2022/08/29 06:04:56;;;;;;;4.05;2.42;;;;;;;26.27;37.51;101340.91;5115015;28;20027;-51
2022/08/29 06:07:24;;;;;;;9.98;3.47;;;;;;;26.29;37.69;101341.78;5114611;28;20020;-48
2022/08/29 06:09:53;;;;;;;6.70;2.72;;;;;;;26.32;37.74;101348.81;5114510;28;20039;-50
2022/08/29 06:12:22;;;;;;;8.38;3.53;;;;;;;26.34;37.67;101347.09;5115117;28;20016;-50
2022/08/29 06:14:50;;;;;;;8.02;3.58;;;;;;;26.23;37.67;101342.63;5115020;28;20024;-51
2022/08/29 06:17:19;;;;;;;4.78;2.30;;;;;;;26.25;37.91;101345.25;5096484;28;20423;-51
2022/08/29 06:19:51;;;;;;;6.80;2.78;;;;;;;26.26;37.87;101340.91;5114760;28;20028;-51
2022/08/29 06:22:21;;;;;;;6.97;2.53;;;;;;;26.28;37.93;101347.06;5114937;28;20415;-50
2022/08/29 06:24:54;;;;;;;5.72;2.67;;;;;;;26.32;37.67;101344.47;5114405;28;20038;-49
2022/08/29 06:27:22;;;;;;;6.15;3.03;;;;;;;26.39;37.60;101351.53;5114903;28;20036;-51
2022/08/29 06:29:51;;;;;;;4.65;2.38;;;;;;;26.36;37.67;101350.63;5096417;28;20065;-49
2022/08/29 06:32:20;;;;;;;8.70;2.83;;;;;;;26.39;37.77;101348.88;5114329;28;20427;-48
2022/08/29 06:34:48;;;;;;;9.93;2.58;;;;;;;26.39;37.58;101353.28;5114355;28;20046;-52
2022/08/29 06:37:17;;;;;;;9.48;3.13;;;;;;;26.46;37.78;101346.31;5096101;28;20425;-48
2022/08/29 06:39:45;;;;;;;10.60;2.72;;;;;;;26.47;37.53;101348.09;5114424;28;20059;-49
2022/08/29 06:42:14;;;;;;;10.23;2.58;;;;;;;26.53;37.74;101348.16;5114472;28;20457;-50
2022/08/29 06:44:42;;;;;;;7.32;3.20;;;;;;;26.60;37.48;101352.56;5096133;28;20115;-50
2022/08/29 06:47:11;;;;;;;6.28;2.72;;;;;;;26.61;37.76;101351.72;5113955;28;20055;-51
2022/08/29 06:49:40;;;;;;;7.85;3.25;;;;;;;26.66;37.50;101350.00;5114401;28;20031;-49
2022/08/29 06:52:08;;;;;;;5.55;2.35;;;;;;;26.68;37.61;101360.53;5113900;28;20037;-52
2022/08/29 06:54:37;;;;;;;8.48;3.15;;;;;;;26.61;37.48;101356.09;5114364;28;20030;-50
2022/08/29 06:57:05;;;;;;;6.00;2.72;;;;;;;26.60;37.92;101354.34;5079694;28;20421;-50
2022/08/29 06:59:34;;;;;;;9.40;2.72;;;;;;;26.64;37.48;101348.25;5092020;28;20048;-50
2022/08/29 07:02:03;;;;;;;8.18;2.70;;;;;;;26.59;37.71;101352.56;5093721;28;20434;-52
2022/08/29 07:04:31;;;;;;;7.13;3.03;;;;;;;26.59;37.63;101355.22;5093482;28;20032;-51
2022/08/29 07:07:00;;;;;;;6.25;2.60;;;;;;;26.60;37.69;101355.22;5093377;28;20076;-49
2022/08/29 07:09:31;;;;;;;7.90;3.13;;;;;;;26.61;37.13;101351.72;5093792;28;20488;-49
2022/08/29 07:11:59;;;;;;;14.43;2.65;;;;;;;26.59;37.29;101348.19;5093798;28;20056;-52
2022/08/29 07:14:28;;;;;;;8.82;3.30;;;;;;;26.59;37.63;101355.22;5093635;28;20113;-50
2022/08/29 07:16:57;;;;;;;9.02;3.42;;;;;;;26.58;37.55;101338.53;5093233;28;20028;-47
2022/08/29 07:19:25;;;;;;;8.70;3.03;;;;;;;26.61;37.47;101335.06;5093611;28;20063;-47
2022/08/29 07:21:54;;;;;;;5.18;2.47;;;;;;;26.69;37.45;101359.66;5093243;28;20043;-47
2022/08/29 07:24:22;;;;;;;5.22;2.70;;;;;;;26.71;37.52;101378.13;5093329;28;20095;-48
2022/08/29 07:26:51;;;;;;;8.23;2.80;;;;;;;26.72;37.46;101374.63;5093280;28;20029;-48
2022/08/29 07:29:21;;;;;;;6.13;2.72;;;;;;;26.72;37.52;101379.88;5092217;28;20085;-48
2022/08/29 07:31:50;;;;;;;7.85;2.75;;;;;;;26.80;37.43;101380.84;5091613;28;20081;-48
2022/08/29 07:34:19;;;;;;;9.43;2.67;;;;;;;26.86;37.21;101395.78;5093575;28;20476;-50
2022/08/29 07:36:47;;;;;;;8.95;3.33;;;;;;;26.83;37.09;101376.47;5093404;28;20047;-50
2022/08/29 07:39:18;;;;;;;8.07;3.28;;;;;;;26.82;37.31;101376.47;5093071;28;20028;-47
2022/08/29 07:41:46;;;;;;;5.35;3.13;;;;;;;26.84;36.94;101361.56;5093396;28;20028;-48
2022/08/29 07:44:16;;;;;;;5.10;2.30;;;;;;;26.87;37.03;101368.59;5091641;28;20030;-47
2022/08/29 07:46:44;;;;;;;9.80;3.42;;;;;;;26.88;37.21;101367.72;5092354;28;20473;-48
2022/08/29 07:49:12;;;;;;;4.20;2.28;;;;;;;26.90;37.28;101361.59;5092637;28;20415;-48
2022/08/29 07:51:41;;;;;;;7.03;3.05;;;;;;;26.93;37.28;101366.03;5091888;28;20097;-48
2022/08/29 07:54:09;;;;;;;7.38;2.97;;;;;;;26.92;37.17;101359.00;5093347;28;20032;-50
2022/08/29 07:56:41;;;;;;;7.22;2.90;;;;;;;26.98;37.01;101356.38;5094888;28;20478;-51
2022/08/29 07:59:09;;;;;;;7.32;3.05;;;;;;;27.03;36.97;101352.03;5112587;28;20134;-49
2022/08/29 08:01:39;;;;;;;10.98;2.70;;;;;;;27.08;36.65;101346.78;5117714;28;20112;-51
2022/08/29 08:04:08;;;;;;;10.77;3.30;;;;;;;27.09;36.70;101343.28;5117339;28;20058;-50
2022/08/29 08:06:38;;;;;;;7.15;3.25;;;;;;;27.19;36.82;101341.59;5117380;28;20055;-50
2022/08/29 08:09:06;;;;;;;7.90;3.13;;;;;;;27.21;36.75;101340.75;5080883;28;20397;-52
2022/08/29 08:11:34;;;;;;;5.05;2.67;;;;;;;27.25;36.66;101331.97;5104004;28;20072;-50
2022/08/29 08:14:03;;;;;;;7.25;2.92;;;;;;;27.18;36.38;101329.28;5105548;28;20031;-48
2022/08/29 08:16:31;;;;;;;8.20;2.65;;;;;;;27.23;36.42;101338.97;5103828;28;20374;-49
2022/08/29 08:18:58;;;;;;;5.57;2.83;;;;;;;27.28;36.55;101331.13;5107769;28;20024;-50
2022/08/29 08:21:27;;;;;;;6.18;2.70;;;;;;;27.26;36.58;101320.56;5101525;28;20449;-48
2022/08/29 08:23:55;;;;;;;6.70;2.88;;;;;;;27.28;36.60;101329.34;5088996;28;20468;-53
2022/08/29 08:26:23;;;;;;;6.45;2.50;;;;;;;27.27;36.63;101311.78;5104737;28;20048;-48
2022/08/29 08:28:52;;;;;;;9.70;3.63;;;;;;;27.33;36.46;101326.72;5109914;28;20484;-49
2022/08/29 08:31:19;;;;;;;7.93;2.45;;;;;;;27.34;36.46;101335.53;5100180;28;20028;-51
2022/08/29 08:33:47;;;;;;;4.63;2.22;;;;;;;27.39;36.61;101333.78;5105986;28;20020;-50
2022/08/29 08:36:17;;;;;;;6.53;3.05;;;;;;;27.40;36.49;101325.91;5105573;28;20472;-54
2022/08/29 08:38:46;;;;;;;6.60;3.10;;;;;;;27.50;36.41;101325.94;5083193;28;20028;-52
2022/08/29 08:41:27;;;;;;;9.85;3.03;;;;;;;27.50;36.66;101320.69;5105346;28;20055;-50
2022/08/29 08:44:02;;;;;;;7.53;2.60;;;;;;;27.53;36.42;101329.50;5106688;28;20102;-51
2022/08/29 08:46:46;;;;;;;6.47;2.70;;;;;;;27.58;36.43;101333.00;5099434;28;20103;-49
2022/08/29 08:49:23;;;;;;;5.65;2.63;;;;;;;27.60;36.49;101333.03;5104967;28;20099;-50
2022/08/29 08:51:54;;;;;;;6.40;2.80;;;;;;;27.72;36.04;101338.34;5062549;28;20389;-51
2022/08/29 08:54:24;;;;;;;7.72;2.70;;;;;;;27.71;36.31;101348.88;5102650;28;20019;-53
2022/08/29 08:56:55;;;;;;;11.52;3.15;;;;;;;27.64;36.49;101339.19;5082936;28;20065;-52
2022/08/29 08:59:40;;;;;;;8.85;2.50;;;;;;;27.68;36.44;101336.56;5098981;28;20051;-48
2022/08/29 09:02:33;;;;;;;5.68;2.80;;;;;;;27.77;36.50;101348.03;5095871;28;20031;-48
2022/08/29 09:05:39;;;;;;;6.60;2.67;;;;;;;27.87;36.19;101337.50;5088410;28;20039;-51
2022/08/29 09:08:25;;;;;;;6.53;2.83;;;;;;;27.90;36.37;101339.25;5092209;28;20455;-49
2022/08/29 09:11:02;;;;;;;7.43;2.88;;;;;;;27.97;36.27;101351.56;5102460;28;20448;-51
2022/08/29 09:13:39;;;;;;;7.45;3.22;;;;;;;27.96;36.33;101349.84;5103801;28;20036;-51
2022/08/29 09:16:21;;;;;;;5.90;2.60;;;;;;;27.91;36.27;101348.94;5076756;28;20032;-47
2022/08/29 09:18:48;;;;;;;5.82;2.92;;;;;;;27.99;36.16;101348.94;5085867;28;20024;-48
2022/08/29 09:21:19;;;;;;;8.05;2.50;;;;;;;28.01;36.55;101347.19;5097331;28;20028;-52
2022/08/29 09:23:50;;;;;;;8.65;2.60;;;;;;;28.04;36.02;101350.72;5105706;28;20027;-54
2022/08/29 09:26:20;;;;;;;7.53;2.75;;;;;;;28.12;35.60;101334.06;5102736;28;20024;-49
2022/08/29 09:28:48;;;;;;;8.52;2.20;;;;;;;28.15;35.62;101334.94;5102817;28;20027;-54
2022/08/29 09:31:18;;;;;;;7.45;2.65;;;;;;;28.17;35.82;101345.47;5102319;28;20034;-52
2022/08/29 09:33:51;;;;;;;5.40;2.60;;;;;;;28.22;35.63;101333.19;5101901;28;20084;-49
2022/08/29 09:36:48;;;;;;;7.38;2.30;;;;;;;28.25;35.67;101343.75;5105598;28;20076;-52
2022/08/29 09:39:20;;;;;;;8.30;2.90;;;;;;;28.32;35.74;101348.13;5094803;28;20028;-52
2022/08/29 09:41:52;;;;;;;8.90;2.50;;;;;;;28.30;35.32;101336.69;5098892;28;20028;-52
2022/08/29 09:44:25;;;;;;;7.82;2.65;;;;;;;28.22;35.21;101330.53;5102385;28;20059;-49
2022/08/29 09:47:13;;;;;;;8.43;3.30;;;;;;;28.33;35.32;101339.34;5084470;28;20077;-49
2022/08/29 09:49:49;;;;;;;5.38;2.10;;;;;;;28.34;35.28;101346.38;5102047;28;20093;-47
2022/08/29 09:52:23;;;;;;;4.90;2.22;;;;;;;28.39;35.09;101346.38;5075957;28;20035;-52
2022/08/29 09:54:50;;;;;;;8.00;2.53;;;;;;;28.38;35.31;101341.97;5099293;28;20089;-55
2022/08/29 09:57:18;;;;;;;7.13;3.25;;;;;;;28.43;35.21;101347.28;5097516;28;20023;-54
2022/08/29 10:00:16;;;;;;;6.35;2.53;;;;;;;28.39;35.45;101356.06;5104377;28;20115;-51
2022/08/29 10:02:47;;;;;;;6.25;2.47;;;;;;;28.42;35.30;101353.44;5102720;28;20070;-50
2022/08/29 10:05:35;;;;;;;5.22;2.90;;;;;;;28.46;35.09;101356.06;5087469;28;20019;-48
2022/08/29 10:08:05;;;;;;;6.22;2.50;;;;;;;28.54;34.69;101340.22;5073371;28;20035;-53
2022/08/29 10:10:35;;;;;;;4.10;2.58;;;;;;;28.54;34.87;101328.81;5101630;28;20016;-52
2022/08/29 10:13:06;;;;;;;6.97;2.30;;;;;;;28.56;35.04;101335.81;5101889;28;20032;-50
2022/08/29 10:15:36;;;;;;;6.35;2.50;;;;;;;28.60;35.12;101340.22;5062404;28;20024;-52
2022/08/29 10:18:23;;;;;;;9.60;3.05;;;;;;;28.52;34.90;101338.47;5086103;28;20054;-56
2022/08/29 10:21:14;;;;;;;7.22;2.30;;;;;;;28.57;35.30;101334.94;5099907;28;20069;-52
2022/08/29 10:23:45;;;;;;;5.55;2.53;;;;;;;28.68;34.60;101341.97;5092798;28;20081;-53
2022/08/29 10:26:26;;;;;;;8.93;2.83;;;;;;;28.60;35.03;101323.50;5103991;28;20030;-52
2022/08/29 10:29:20;;;;;;;5.80;2.63;;;;;;;28.63;34.71;101324.38;5103166;28;20028;-55
2022/08/29 10:31:54;;;;;;;5.70;2.22;;;;;;;28.71;34.94;101324.34;5083316;28;20485;-49
2022/08/29 10:34:30;;;;;;;12.63;2.67;;;;;;;28.71;34.79;101311.16;5079588;28;20123;-53
2022/08/29 10:37:05;;;;;;;7.28;2.42;;;;;;;28.69;34.74;101306.78;5098272;28;20099;-48
2022/08/29 10:39:52;;;;;;;5.05;2.30;;;;;;;28.73;34.73;101306.78;5103498;28;20043;-49
2022/08/29 10:42:22;;;;;;;4.15;2.30;;;;;;;28.78;34.49;101294.47;5102035;28;20381;-54
2022/08/29 10:45:13;;;;;;;6.22;2.47;;;;;;;28.82;34.71;101311.16;5081859;28;20481;-55
2022/08/29 10:47:44;;;;;;;5.15;2.15;;;;;;;28.85;34.50;101305.88;5077408;28;20067;-52
2022/08/29 10:50:35;;;;;;;6.55;2.40;;;;;;;28.89;34.45;101291.81;5103524;28;20031;-54
2022/08/29 10:53:15;;;;;;;7.40;2.92;;;;;;;28.95;34.74;101297.09;5105384;28;20023;-48
2022/08/29 10:55:49;;;;;;;4.93;2.80;;;;;;;28.93;34.48;101288.28;5102945;28;20450;-54
2022/08/29 10:58:37;;;;;;;4.93;2.55;;;;;;;28.93;34.62;101284.75;5102333;28;20054;-51
2022/08/29 11:01:20;;;;;;;11.30;2.97;;;;;;;28.91;34.55;101282.13;5088766;28;20032;-49
2022/08/29 11:03:52;;;;;;;9.25;2.42;;;;;;;28.92;34.85;101281.25;5084775;28;20393;-51
2022/08/29 11:06:26;;;;;;;6.95;2.20;;;;;;;28.99;34.51;101291.75;5103563;28;20035;-48
2022/08/29 11:08:55;;;;;;;6.30;2.50;;;;;;;29.02;34.42;101291.75;5101099;28;20435;-49
2022/08/29 11:11:24;;;;;;;13.93;2.90;;;;;;;29.07;34.43;101300.56;5084795;28;20032;-52
2022/08/29 11:13:59;;;;;;;3.55;2.20;;;;;;;29.05;34.46;101292.63;5083704;28;20096;-48
2022/08/29 11:16:46;;;;;;;10.88;3.03;;;;;;;29.04;34.51;101284.72;5086081;28;20464;-49
2022/08/29 11:19:30;;;;;;;4.70;2.95;;;;;;;29.14;34.28;101302.28;5084952;28;20058;-50
2022/08/29 11:22:04;;;;;;;7.35;2.53;;;;;;;29.24;33.79;101303.13;5085862;28;20084;-49
2022/08/29 11:24:32;;;;;;;;;;;;;;;29.23;34.03;101304.00;5097455;28;20424;-49
2022/08/29 11:27:11;;;;;;;6.28;2.60;;;;;;;29.29;33.67;101301.34;5096462;28;19919;-52
2022/08/29 11:29:43;;;;;;;5.18;2.50;;;;;;;29.31;34.02;101304.88;5100589;28;20039;-49
2022/08/29 11:32:35;;;;;;;6.28;2.60;;;;;;;29.28;33.99;101289.03;5084803;28;20043;-51
2022/08/29 11:35:06;;;;;;;6.15;2.45;;;;;;;29.31;34.36;101290.75;5051469;28;20036;-49
2022/08/29 11:38:02;;;;;;;7.40;2.92;;;;;;;29.23;34.13;101282.88;5092330;28;20603;-52
2022/08/29 11:41:08;;;;;;;5.53;2.40;;;;;;;29.43;33.51;101288.13;5075259;28;20101;-50
2022/08/29 11:43:41;;;;;;;4.65;2.72;;;;;;;29.37;33.86;101283.72;5081658;28;20043;-49